sensor_id;sensor_type;location;lat;lon;timestamp;temperature;humidity
33865;DHT22;20159;51.072;13.526;2022-09-03T00:02:23;17.10;51.70
33865;DHT22;20159;51.072;13.526;2022-09-03T00:04:53;17.10;51.90
33865;DHT22;20159;51.072;13.526;2022-09-03T00:07:29;17.10;51.80
33865;DHT22;20159;51.072;13.526;2022-09-03T00:10:01;17.10;51.90
33865;DHT22;20159;51.072;13.526;2022-09-03T00:12:28;17.10;52.00
33865;DHT22;20159;51.072;13.526;2022-09-03T00:17:28;17.00;52.00
33865;DHT22;20159;51.072;13.526;2022-09-03T00:19:59;17.10;52.10
33865;DHT22;20159;51.072;13.526;2022-09-03T00:22:28;17.10;52.00
33865;DHT22;20159;51.072;13.526;2022-09-03T00:24:55;17.00;52.00
33865;DHT22;20159;51.072;13.526;2022-09-03T00:27:25;17.00;52.00
33865;DHT22;20159;51.072;13.526;2022-09-03T00:29:52;17.00;52.00
33865;DHT22;20159;51.072;13.526;2022-09-03T00:32:26;16.90;51.80
33865;DHT22;20159;51.072;13.526;2022-09-03T00:34:57;16.90;51.80
33865;DHT22;20159;51.072;13.526;2022-09-03T00:37:25;16.80;51.80
33865;DHT22;20159;51.072;13.526;2022-09-03T00:39:54;16.70;51.80
33865;DHT22;20159;51.072;13.526;2022-09-03T00:47:26;16.50;51.90
33865;DHT22;20159;51.072;13.526;2022-09-03T00:50:00;16.50;52.00
33865;DHT22;20159;51.072;13.526;2022-09-03T00:57:37;16.20;52.20
33865;DHT22;20159;51.072;13.526;2022-09-03T01:00:07;16.10;52.20
33865;DHT22;20159;51.072;13.526;2022-09-03T01:02:36;16.00;52.20
33865;DHT22;20159;51.072;13.526;2022-09-03T01:10:29;15.70;52.40
33865;DHT22;20159;51.072;13.526;2022-09-03T01:13:06;15.70;52.60
33865;DHT22;20159;51.072;13.526;2022-09-03T01:21:04;15.40;52.70
33865;DHT22;20159;51.072;13.526;2022-09-03T01:23:42;15.20;52.80
33865;DHT22;20159;51.072;13.526;2022-09-03T01:26:27;15.10;52.90
33865;DHT22;20159;51.072;13.526;2022-09-03T01:36:33;14.80;53.50
33865;DHT22;20159;51.072;13.526;2022-09-03T01:39:02;14.80;53.70
33865;DHT22;20159;51.072;13.526;2022-09-03T01:41:43;14.70;53.80
33865;DHT22;20159;51.072;13.526;2022-09-03T01:44:41;14.60;53.90
33865;DHT22;20159;51.072;13.526;2022-09-03T01:49:41;14.60;54.20
33865;DHT22;20159;51.072;13.526;2022-09-03T01:52:13;14.50;54.30
33865;DHT22;20159;51.072;13.526;2022-09-03T01:54:57;14.50;54.50
33865;DHT22;20159;51.072;13.526;2022-09-03T01:57:29;14.50;54.60
33865;DHT22;20159;51.072;13.526;2022-09-03T02:02:31;14.40;54.50
33865;DHT22;20159;51.072;13.526;2022-09-03T02:04:59;14.40;54.60
33865;DHT22;20159;51.072;13.526;2022-09-03T02:07:26;14.40;54.60
33865;DHT22;20159;51.072;13.526;2022-09-03T02:09:53;14.30;54.70
33865;DHT22;20159;51.072;13.526;2022-09-03T02:12:19;14.30;54.70
33865;DHT22;20159;51.072;13.526;2022-09-03T02:14:45;14.30;54.80
33865;DHT22;20159;51.072;13.526;2022-09-03T02:17:11;14.20;54.70
33865;DHT22;20159;51.072;13.526;2022-09-03T02:19:37;14.20;54.90
33865;DHT22;20159;51.072;13.526;2022-09-03T02:22:03;14.20;54.90
33865;DHT22;20159;51.072;13.526;2022-09-03T02:24:29;14.10;55.00
33865;DHT22;20159;51.072;13.526;2022-09-03T02:26:54;14.10;55.10
33865;DHT22;20159;51.072;13.526;2022-09-03T02:29:20;14.00;55.20
33865;DHT22;20159;51.072;13.526;2022-09-03T02:31:46;14.00;55.30
33865;DHT22;20159;51.072;13.526;2022-09-03T02:34:11;14.30;55.70
33865;DHT22;20159;51.072;13.526;2022-09-03T02:36:41;13.90;55.60
33865;DHT22;20159;51.072;13.526;2022-09-03T02:39:07;13.80;55.70
33865;DHT22;20159;51.072;13.526;2022-09-03T02:41:33;13.80;55.80
33865;DHT22;20159;51.072;13.526;2022-09-03T02:44:20;13.80;55.90
33865;DHT22;20159;51.072;13.526;2022-09-03T02:46:55;13.70;56.00
33865;DHT22;20159;51.072;13.526;2022-09-03T02:49:21;13.70;56.10
33865;DHT22;20159;51.072;13.526;2022-09-03T02:51:46;13.70;56.30
33865;DHT22;20159;51.072;13.526;2022-09-03T02:54:12;13.70;56.50
33865;DHT22;20159;51.072;13.526;2022-09-03T02:56:38;13.60;56.40
33865;DHT22;20159;51.072;13.526;2022-09-03T02:59:04;13.60;56.50
33865;DHT22;20159;51.072;13.526;2022-09-03T03:01:29;13.60;56.70
33865;DHT22;20159;51.072;13.526;2022-09-03T03:03:55;13.60;56.60
33865;DHT22;20159;51.072;13.526;2022-09-03T03:06:20;13.50;56.60
33865;DHT22;20159;51.072;13.526;2022-09-03T03:08:46;13.50;56.60
33865;DHT22;20159;51.072;13.526;2022-09-03T03:11:12;13.50;56.50
33865;DHT22;20159;51.072;13.526;2022-09-03T03:13:40;13.40;56.60
33865;DHT22;20159;51.072;13.526;2022-09-03T03:16:05;13.40;56.80
33865;DHT22;20159;51.072;13.526;2022-09-03T03:18:31;13.40;56.80
33865;DHT22;20159;51.072;13.526;2022-09-03T03:20:56;13.30;56.90
33865;DHT22;20159;51.072;13.526;2022-09-03T03:23:22;13.30;56.90
33865;DHT22;20159;51.072;13.526;2022-09-03T03:25:47;13.30;57.00
33865;DHT22;20159;51.072;13.526;2022-09-03T03:28:13;13.20;57.00
33865;DHT22;20159;51.072;13.526;2022-09-03T03:30:39;13.20;57.00
33865;DHT22;20159;51.072;13.526;2022-09-03T03:33:07;13.10;57.10
33865;DHT22;20159;51.072;13.526;2022-09-03T03:35:32;13.10;57.10
33865;DHT22;20159;51.072;13.526;2022-09-03T03:37:58;13.00;57.10
33865;DHT22;20159;51.072;13.526;2022-09-03T03:40:26;13.00;57.20
33865;DHT22;20159;51.072;13.526;2022-09-03T03:42:52;12.90;57.30
33865;DHT22;20159;51.072;13.526;2022-09-03T03:45:17;12.90;57.50
33865;DHT22;20159;51.072;13.526;2022-09-03T03:47:43;12.80;57.50
33865;DHT22;20159;51.072;13.526;2022-09-03T03:50:08;12.80;57.70
33865;DHT22;20159;51.072;13.526;2022-09-03T03:52:34;12.80;57.90
33865;DHT22;20159;51.072;13.526;2022-09-03T03:54:59;12.70;57.80
33865;DHT22;20159;51.072;13.526;2022-09-03T03:57:25;12.70;57.90
33865;DHT22;20159;51.072;13.526;2022-09-03T03:59:53;12.70;57.90
33865;DHT22;20159;51.072;13.526;2022-09-03T04:02:19;12.60;58.20
33865;DHT22;20159;51.072;13.526;2022-09-03T04:04:44;12.60;58.20
33865;DHT22;20159;51.072;13.526;2022-09-03T04:07:10;12.50;58.00
33865;DHT22;20159;51.072;13.526;2022-09-03T04:09:35;12.50;58.20
33865;DHT22;20159;51.072;13.526;2022-09-03T04:12:01;12.50;58.30
33865;DHT22;20159;51.072;13.526;2022-09-03T04:14:27;12.50;58.10
33865;DHT22;20159;51.072;13.526;2022-09-03T04:16:53;12.50;58.50
33865;DHT22;20159;51.072;13.526;2022-09-03T04:19:19;12.40;58.50
33865;DHT22;20159;51.072;13.526;2022-09-03T04:21:44;12.40;58.50
33865;DHT22;20159;51.072;13.526;2022-09-03T04:24:10;12.40;58.60
33865;DHT22;20159;51.072;13.526;2022-09-03T04:26:35;12.40;58.70
33865;DHT22;20159;51.072;13.526;2022-09-03T04:29:02;12.40;58.30
33865;DHT22;20159;51.072;13.526;2022-09-03T04:31:28;12.30;58.40
33865;DHT22;20159;51.072;13.526;2022-09-03T04:33:53;12.30;58.50
33865;DHT22;20159;51.072;13.526;2022-09-03T04:36:22;12.30;58.60
33865;DHT22;20159;51.072;13.526;2022-09-03T04:38:49;12.30;58.50
33865;DHT22;20159;51.072;13.526;2022-09-03T04:41:16;12.30;58.60
33865;DHT22;20159;51.072;13.526;2022-09-03T04:43:42;12.30;58.60
33865;DHT22;20159;51.072;13.526;2022-09-03T04:46:08;12.20;58.60
33865;DHT22;20159;51.072;13.526;2022-09-03T04:48:34;12.20;58.60
33865;DHT22;20159;51.072;13.526;2022-09-03T04:51:01;13.20;59.10
33865;DHT22;20159;51.072;13.526;2022-09-03T04:53:29;12.20;58.70
33865;DHT22;20159;51.072;13.526;2022-09-03T04:55:55;12.10;58.80
33865;DHT22;20159;51.072;13.526;2022-09-03T04:58:20;12.10;59.00
33865;DHT22;20159;51.072;13.526;2022-09-03T05:00:45;12.10;59.10
33865;DHT22;20159;51.072;13.526;2022-09-03T05:03:11;12.10;59.20
33865;DHT22;20159;51.072;13.526;2022-09-03T05:05:36;12.10;59.30
33865;DHT22;20159;51.072;13.526;2022-09-03T05:08:02;12.10;59.30
33865;DHT22;20159;51.072;13.526;2022-09-03T05:10:28;12.10;59.40
33865;DHT22;20159;51.072;13.526;2022-09-03T05:12:57;12.10;59.40
33865;DHT22;20159;51.072;13.526;2022-09-03T05:15:23;12.10;59.40
33865;DHT22;20159;51.072;13.526;2022-09-03T05:17:49;12.10;59.40
33865;DHT22;20159;51.072;13.526;2022-09-03T05:20:17;12.10;59.50
33865;DHT22;20159;51.072;13.526;2022-09-03T05:22:43;12.20;59.70
33865;DHT22;20159;51.072;13.526;2022-09-03T05:25:08;12.20;59.70
33865;DHT22;20159;51.072;13.526;2022-09-03T05:27:34;12.20;59.80
33865;DHT22;20159;51.072;13.526;2022-09-03T05:29:59;12.30;60.60
33865;DHT22;20159;51.072;13.526;2022-09-03T05:32:25;12.30;60.20
33865;DHT22;20159;51.072;13.526;2022-09-03T05:34:52;12.30;60.20
33865;DHT22;20159;51.072;13.526;2022-09-03T05:37:18;12.40;60.30
33865;DHT22;20159;51.072;13.526;2022-09-03T05:39:43;12.40;60.30
33865;DHT22;20159;51.072;13.526;2022-09-03T05:42:09;12.50;60.40
33865;DHT22;20159;51.072;13.526;2022-09-03T05:44:35;12.60;60.50
33865;DHT22;20159;51.072;13.526;2022-09-03T05:47:01;12.70;60.60
33865;DHT22;20159;51.072;13.526;2022-09-03T05:49:27;12.80;60.80
33865;DHT22;20159;51.072;13.526;2022-09-03T05:51:52;12.90;60.90
33865;DHT22;20159;51.072;13.526;2022-09-03T05:54:18;13.00;61.00
33865;DHT22;20159;51.072;13.526;2022-09-03T05:56:43;13.10;61.10
33865;DHT22;20159;51.072;13.526;2022-09-03T05:59:09;13.30;61.20
33865;DHT22;20159;51.072;13.526;2022-09-03T06:01:35;13.40;61.10
33865;DHT22;20159;51.072;13.526;2022-09-03T06:04:04;13.50;61.00
33865;DHT22;20159;51.072;13.526;2022-09-03T06:06:31;13.70;60.90
33865;DHT22;20159;51.072;13.526;2022-09-03T06:08:58;13.90;60.90
33865;DHT22;20159;51.072;13.526;2022-09-03T06:11:24;14.20;61.60
33865;DHT22;20159;51.072;13.526;2022-09-03T06:13:55;14.60;62.00
33865;DHT22;20159;51.072;13.526;2022-09-03T06:16:22;15.20;62.60
33865;DHT22;20159;51.072;13.526;2022-09-03T06:18:47;15.80;63.10
33865;DHT22;20159;51.072;13.526;2022-09-03T06:21:13;16.50;63.60
33865;DHT22;20159;51.072;13.526;2022-09-03T06:23:39;17.20;63.80
33865;DHT22;20159;51.072;13.526;2022-09-03T06:26:12;17.40;63.80
33865;DHT22;20159;51.072;13.526;2022-09-03T06:28:39;18.70;64.10
33865;DHT22;20159;51.072;13.526;2022-09-03T06:31:08;19.40;63.90
33865;DHT22;20159;51.072;13.526;2022-09-03T06:33:34;20.20;63.80
33865;DHT22;20159;51.072;13.526;2022-09-03T06:36:01;20.90;63.80
33865;DHT22;20159;51.072;13.526;2022-09-03T06:38:28;21.60;63.10
33865;DHT22;20159;51.072;13.526;2022-09-03T06:40:54;22.20;62.60
33865;DHT22;20159;51.072;13.526;2022-09-03T06:43:20;23.70;62.80
33865;DHT22;20159;51.072;13.526;2022-09-03T06:45:59;23.30;62.00
33865;DHT22;20159;51.072;13.526;2022-09-03T06:48:25;24.00;62.40
33865;DHT22;20159;51.072;13.526;2022-09-03T06:50:55;24.50;61.30
33865;DHT22;20159;51.072;13.526;2022-09-03T06:53:27;25.10;61.60
33865;DHT22;20159;51.072;13.526;2022-09-03T06:55:56;25.50;61.20
33865;DHT22;20159;51.072;13.526;2022-09-03T06:58:23;25.90;59.60
33865;DHT22;20159;51.072;13.526;2022-09-03T07:00:49;26.30;58.50
33865;DHT22;20159;51.072;13.526;2022-09-03T07:03:16;26.40;58.00
33865;DHT22;20159;51.072;13.526;2022-09-03T07:05:42;26.60;57.20
33865;DHT22;20159;51.072;13.526;2022-09-03T07:08:08;26.70;56.30
33865;DHT22;20159;51.072;13.526;2022-09-03T07:10:37;26.80;55.50
33865;DHT22;20159;51.072;13.526;2022-09-03T07:13:03;26.90;56.20
33865;DHT22;20159;51.072;13.526;2022-09-03T07:15:33;27.00;56.10
33865;DHT22;20159;51.072;13.526;2022-09-03T07:17:59;27.20;56.10
33865;DHT22;20159;51.072;13.526;2022-09-03T07:20:25;27.50;57.20
33865;DHT22;20159;51.072;13.526;2022-09-03T07:22:53;27.80;56.90
33865;DHT22;20159;51.072;13.526;2022-09-03T07:25:19;28.10;57.00
33865;DHT22;20159;51.072;13.526;2022-09-03T07:27:44;28.30;56.50
33865;DHT22;20159;51.072;13.526;2022-09-03T07:30:11;28.50;56.10
33865;DHT22;20159;51.072;13.526;2022-09-03T07:32:36;28.80;54.50
33865;DHT22;20159;51.072;13.526;2022-09-03T07:35:05;28.90;53.90
33865;DHT22;20159;51.072;13.526;2022-09-03T07:37:31;29.00;54.00
33865;DHT22;20159;51.072;13.526;2022-09-03T07:39:57;29.10;53.40
33865;DHT22;20159;51.072;13.526;2022-09-03T07:42:22;29.20;53.00
33865;DHT22;20159;51.072;13.526;2022-09-03T07:44:47;29.30;52.90
33865;DHT22;20159;51.072;13.526;2022-09-03T07:47:13;29.40;52.60
33865;DHT22;20159;51.072;13.526;2022-09-03T07:49:39;29.50;53.70
33865;DHT22;20159;51.072;13.526;2022-09-03T07:52:04;29.70;51.40
33865;DHT22;20159;51.072;13.526;2022-09-03T07:54:30;29.80;53.40
33865;DHT22;20159;51.072;13.526;2022-09-03T07:56:56;30.00;52.50
33865;DHT22;20159;51.072;13.526;2022-09-03T07:59:21;30.10;51.30
33865;DHT22;20159;51.072;13.526;2022-09-03T08:01:48;30.20;52.70
33865;DHT22;20159;51.072;13.526;2022-09-03T08:04:15;30.30;51.90
33865;DHT22;20159;51.072;13.526;2022-09-03T08:06:40;30.40;50.60
33865;DHT22;20159;51.072;13.526;2022-09-03T08:09:07;30.50;50.50
33865;DHT22;20159;51.072;13.526;2022-09-03T08:11:37;30.50;52.90
33865;DHT22;20159;51.072;13.526;2022-09-03T08:14:04;30.70;51.70
33865;DHT22;20159;51.072;13.526;2022-09-03T08:16:31;30.80;49.00
33865;DHT22;20159;51.072;13.526;2022-09-03T08:18:57;30.80;50.90
33865;DHT22;20159;51.072;13.526;2022-09-03T08:21:23;30.90;50.70
33865;DHT22;20159;51.072;13.526;2022-09-03T08:23:50;31.00;49.40
33865;DHT22;20159;51.072;13.526;2022-09-03T08:26:16;31.10;50.40
33865;DHT22;20159;51.072;13.526;2022-09-03T08:28:42;31.20;50.60
33865;DHT22;20159;51.072;13.526;2022-09-03T08:31:08;31.30;51.30
33865;DHT22;20159;51.072;13.526;2022-09-03T08:33:43;31.40;48.40
33865;DHT22;20159;51.072;13.526;2022-09-03T08:36:13;31.50;48.70
33865;DHT22;20159;51.072;13.526;2022-09-03T08:38:40;31.60;49.70
33865;DHT22;20159;51.072;13.526;2022-09-03T08:41:09;31.70;49.60
33865;DHT22;20159;51.072;13.526;2022-09-03T08:43:51;31.80;47.90
33865;DHT22;20159;51.072;13.526;2022-09-03T08:46:18;31.80;49.40
33865;DHT22;20159;51.072;13.526;2022-09-03T08:48:44;31.90;47.50
33865;DHT22;20159;51.072;13.526;2022-09-03T08:51:11;31.90;48.20
33865;DHT22;20159;51.072;13.526;2022-09-03T08:56:23;31.90;46.30
33865;DHT22;20159;51.072;13.526;2022-09-03T08:58:50;31.90;46.70
33865;DHT22;20159;51.072;13.526;2022-09-03T09:01:25;31.90;47.10
33865;DHT22;20159;51.072;13.526;2022-09-03T09:06:40;32.00;45.20
33865;DHT22;20159;51.072;13.526;2022-09-03T09:14:46;32.20;46.90
33865;DHT22;20159;51.072;13.526;2022-09-03T09:17:23;32.30;46.10
33865;DHT22;20159;51.072;13.526;2022-09-03T09:25:21;32.40;46.50
33865;DHT22;20159;51.072;13.526;2022-09-03T09:28:12;32.50;46.10
33865;DHT22;20159;51.072;13.526;2022-09-03T09:30:32;32.40;44.80
33865;DHT22;20159;51.072;13.526;2022-09-03T09:32:58;32.40;44.50
33865;DHT22;20159;51.072;13.526;2022-09-03T09:35:24;32.40;45.30
33865;DHT22;20159;51.072;13.526;2022-09-03T09:37:51;32.40;45.20
33865;DHT22;20159;51.072;13.526;2022-09-03T09:40:30;32.40;43.30
33865;DHT22;20159;51.072;13.526;2022-09-03T09:43:06;32.50;43.20
33865;DHT22;20159;51.072;13.526;2022-09-03T09:45:32;32.50;44.20
33865;DHT22;20159;51.072;13.526;2022-09-03T09:47:58;32.50;44.50
33865;DHT22;20159;51.072;13.526;2022-09-03T09:50:24;32.50;45.10
33865;DHT22;20159;51.072;13.526;2022-09-03T09:52:58;32.50;45.10
33865;DHT22;20159;51.072;13.526;2022-09-03T09:55:24;32.50;43.90
33865;DHT22;20159;51.072;13.526;2022-09-03T09:58:03;32.50;44.00
33865;DHT22;20159;51.072;13.526;2022-09-03T10:00:28;32.50;42.80
33865;DHT22;20159;51.072;13.526;2022-09-03T10:02:54;32.40;43.50
33865;DHT22;20159;51.072;13.526;2022-09-03T10:05:23;32.30;43.50
33865;DHT22;20159;51.072;13.526;2022-09-03T10:07:59;32.10;41.80
33865;DHT22;20159;51.072;13.526;2022-09-03T10:10:25;31.90;41.10
33865;DHT22;20159;51.072;13.526;2022-09-03T10:12:59;31.60;41.10
33865;DHT22;20159;51.072;13.526;2022-09-03T10:15:43;31.30;41.80
33865;DHT22;20159;51.072;13.526;2022-09-03T10:20:41;30.50;41.20
33865;DHT22;20159;51.072;13.526;2022-09-03T10:28:04;29.10;39.90
33865;DHT22;20159;51.072;13.526;2022-09-03T10:30:30;28.80;40.50
33865;DHT22;20159;51.072;13.526;2022-09-03T10:33:04;28.40;40.40
33865;DHT22;20159;51.072;13.526;2022-09-03T10:35:33;28.10;40.50
33865;DHT22;20159;51.072;13.526;2022-09-03T10:45:34;27.10;41.20
33865;DHT22;20159;51.072;13.526;2022-09-03T10:50:47;26.70;40.90
33865;DHT22;20159;51.072;13.526;2022-09-03T11:01:00;26.00;40.90
33865;DHT22;20159;51.072;13.526;2022-09-03T11:06:04;25.70;41.10
33865;DHT22;20159;51.072;13.526;2022-09-03T11:08:36;25.60;41.30
33865;DHT22;20159;51.072;13.526;2022-09-03T11:11:18;25.50;41.40
33865;DHT22;20159;51.072;13.526;2022-09-03T11:13:50;25.40;41.40
33865;DHT22;20159;51.072;13.526;2022-09-03T11:16:29;25.30;41.50
33865;DHT22;20159;51.072;13.526;2022-09-03T11:19:06;25.20;41.60
33865;DHT22;20159;51.072;13.526;2022-09-03T11:21:32;25.20;41.80
33865;DHT22;20159;51.072;13.526;2022-09-03T11:24:04;25.20;41.80
33865;DHT22;20159;51.072;13.526;2022-09-03T11:26:30;25.20;42.00
33865;DHT22;20159;51.072;13.526;2022-09-03T11:29:01;25.10;42.00
33865;DHT22;20159;51.072;13.526;2022-09-03T11:31:44;25.20;42.10
33865;DHT22;20159;51.072;13.526;2022-09-03T11:34:13;25.20;42.20
33865;DHT22;20159;51.072;13.526;2022-09-03T11:36:39;25.20;42.60
33865;DHT22;20159;51.072;13.526;2022-09-03T11:39:21;25.20;42.20
33865;DHT22;20159;51.072;13.526;2022-09-03T11:44:23;25.20;42.10
33865;DHT22;20159;51.072;13.526;2022-09-03T11:46:52;25.20;42.10
33865;DHT22;20159;51.072;13.526;2022-09-03T11:49:28;25.30;42.00
33865;DHT22;20159;51.072;13.526;2022-09-03T11:52:01;25.30;42.30
33865;DHT22;20159;51.072;13.526;2022-09-03T11:54:30;25.30;42.30
33865;DHT22;20159;51.072;13.526;2022-09-03T11:57:06;25.40;42.40
33865;DHT22;20159;51.072;13.526;2022-09-03T11:59:34;25.50;42.40
33865;DHT22;20159;51.072;13.526;2022-09-03T12:02:07;25.60;42.60
33865;DHT22;20159;51.072;13.526;2022-09-03T12:04:50;25.80;42.90
33865;DHT22;20159;51.072;13.526;2022-09-03T12:07:25;26.00;43.00
33865;DHT22;20159;51.072;13.526;2022-09-03T12:10:16;26.20;43.00
33865;DHT22;20159;51.072;13.526;2022-09-03T12:12:47;26.40;42.60
33865;DHT22;20159;51.072;13.526;2022-09-03T12:15:30;26.70;42.80
33865;DHT22;20159;51.072;13.526;2022-09-03T12:18:03;26.80;43.30
33865;DHT22;20159;51.072;13.526;2022-09-03T12:21:08;27.00;42.50
33865;DHT22;20159;51.072;13.526;2022-09-03T12:23:42;27.10;42.30
33865;DHT22;20159;51.072;13.526;2022-09-03T12:26:11;29.40;44.00
33865;DHT22;20159;51.072;13.526;2022-09-03T12:28:39;27.20;42.50
33865;DHT22;20159;51.072;13.526;2022-09-03T12:31:06;27.20;41.90
33865;DHT22;20159;51.072;13.526;2022-09-03T12:33:33;27.20;41.60
33865;DHT22;20159;51.072;13.526;2022-09-03T12:36:00;27.30;42.40
33865;DHT22;20159;51.072;13.526;2022-09-03T12:38:26;27.30;42.20
33865;DHT22;20159;51.072;13.526;2022-09-03T12:40:53;27.30;42.00
33865;DHT22;20159;51.072;13.526;2022-09-03T12:43:19;27.30;42.90
33865;DHT22;20159;51.072;13.526;2022-09-03T12:45:45;27.40;42.30
33865;DHT22;20159;51.072;13.526;2022-09-03T12:48:12;27.40;42.20
33865;DHT22;20159;51.072;13.526;2022-09-03T12:50:39;27.50;42.30
33865;DHT22;20159;51.072;13.526;2022-09-03T12:53:05;27.70;42.70
33865;DHT22;20159;51.072;13.526;2022-09-03T12:55:42;27.80;43.10
33865;DHT22;20159;51.072;13.526;2022-09-03T12:58:11;28.00;43.10
33865;DHT22;20159;51.072;13.526;2022-09-03T13:00:42;28.30;43.40
33865;DHT22;20159;51.072;13.526;2022-09-03T13:03:17;28.50;43.30
33865;DHT22;20159;51.072;13.526;2022-09-03T13:05:45;28.80;43.00
33865;DHT22;20159;51.072;13.526;2022-09-03T13:08:14;29.00;43.00
33865;DHT22;20159;51.072;13.526;2022-09-03T13:10:42;29.20;42.10
33865;DHT22;20159;51.072;13.526;2022-09-03T13:13:18;29.50;42.90
33865;DHT22;20159;51.072;13.526;2022-09-03T13:15:56;29.60;41.00
33865;DHT22;20159;51.072;13.526;2022-09-03T13:18:26;29.90;41.50
33865;DHT22;20159;51.072;13.526;2022-09-03T13:21:03;30.10;42.10
33865;DHT22;20159;51.072;13.526;2022-09-03T13:23:34;30.20;42.00
33865;DHT22;20159;51.072;13.526;2022-09-03T13:26:05;30.40;41.80
33865;DHT22;20159;51.072;13.526;2022-09-03T13:28:39;30.60;42.40
33865;DHT22;20159;51.072;13.526;2022-09-03T13:31:09;29.70;41.20
33865;DHT22;20159;51.072;13.526;2022-09-03T13:33:44;31.00;41.40
33865;DHT22;20159;51.072;13.526;2022-09-03T13:36:45;31.10;42.20
33865;DHT22;20159;51.072;13.526;2022-09-03T13:39:04;31.30;41.90
33865;DHT22;20159;51.072;13.526;2022-09-03T13:41:38;31.50;41.30
33865;DHT22;20159;51.072;13.526;2022-09-03T13:44:13;31.70;41.40
33865;DHT22;20159;51.072;13.526;2022-09-03T13:46:53;31.70;40.30
33865;DHT22;20159;51.072;13.526;2022-09-03T13:52:24;31.70;41.30
33865;DHT22;20159;51.072;13.526;2022-09-03T13:54:53;31.70;40.80
33865;DHT22;20159;51.072;13.526;2022-09-03T13:57:24;31.60;41.20
33865;DHT22;20159;51.072;13.526;2022-09-03T13:59:55;31.50;41.00
33865;DHT22;20159;51.072;13.526;2022-09-03T14:02:44;31.40;40.70
33865;DHT22;20159;51.072;13.526;2022-09-03T14:10:18;31.40;41.40
33865;DHT22;20159;51.072;13.526;2022-09-03T14:12:47;31.30;40.40
33865;DHT22;20159;51.072;13.526;2022-09-03T14:15:25;31.30;41.20
33865;DHT22;20159;51.072;13.526;2022-09-03T14:18:12;31.40;40.60
33865;DHT22;20159;51.072;13.526;2022-09-03T14:20:43;31.40;40.60
33865;DHT22;20159;51.072;13.526;2022-09-03T14:25:55;31.50;40.40
33865;DHT22;20159;51.072;13.526;2022-09-03T14:28:34;31.50;39.90
33865;DHT22;20159;51.072;13.526;2022-09-03T14:31:03;31.50;39.70
33865;DHT22;20159;51.072;13.526;2022-09-03T14:33:36;31.50;40.30
33865;DHT22;20159;51.072;13.526;2022-09-03T14:38:41;31.60;40.00
33865;DHT22;20159;51.072;13.526;2022-09-03T14:49:16;31.90;39.30
33865;DHT22;20159;51.072;13.526;2022-09-03T14:52:10;31.90;39.40
33865;DHT22;20159;51.072;13.526;2022-09-03T14:54:37;31.90;39.70
33865;DHT22;20159;51.072;13.526;2022-09-03T14:59:43;31.90;39.70
33865;DHT22;20159;51.072;13.526;2022-09-03T15:05:02;31.60;38.60
33865;DHT22;20159;51.072;13.526;2022-09-03T15:08:14;31.40;38.60
33865;DHT22;20159;51.072;13.526;2022-09-03T15:12:47;31.20;38.80
33865;DHT22;20159;51.072;13.526;2022-09-03T15:15:16;31.10;38.80
33865;DHT22;20159;51.072;13.526;2022-09-03T15:17:53;31.10;39.00
33865;DHT22;20159;51.072;13.526;2022-09-03T15:20:22;31.10;39.00
33865;DHT22;20159;51.072;13.526;2022-09-03T15:23:00;31.10;39.00
33865;DHT22;20159;51.072;13.526;2022-09-03T15:33:31;31.30;38.60
33865;DHT22;20159;51.072;13.526;2022-09-03T15:38:36;31.30;38.40
33865;DHT22;20159;51.072;13.526;2022-09-03T15:41:24;31.30;38.70
33865;DHT22;20159;51.072;13.526;2022-09-03T15:43:56;31.30;38.30
33865;DHT22;20159;51.072;13.526;2022-09-03T15:46:33;31.30;38.10
33865;DHT22;20159;51.072;13.526;2022-09-03T15:49:05;31.30;38.80
33865;DHT22;20159;51.072;13.526;2022-09-03T15:54:35;31.50;38.60
33865;DHT22;20159;51.072;13.526;2022-09-03T15:57:09;31.50;38.40
33865;DHT22;20159;51.072;13.526;2022-09-03T15:59:40;31.60;38.50
33865;DHT22;20159;51.072;13.526;2022-09-03T16:07:21;31.70;38.90
33865;DHT22;20159;51.072;13.526;2022-09-03T16:12:34;31.90;38.60
33865;DHT22;20159;51.072;13.526;2022-09-03T16:15:11;32.00;38.40
33865;DHT22;20159;51.072;13.526;2022-09-03T16:20:38;32.10;38.40
33865;DHT22;20159;51.072;13.526;2022-09-03T16:23:14;32.10;37.60
33865;DHT22;20159;51.072;13.526;2022-09-03T16:25:51;32.10;37.90
33865;DHT22;20159;51.072;13.526;2022-09-03T16:28:27;32.10;38.10
33865;DHT22;20159;51.072;13.526;2022-09-03T16:33:46;31.90;37.50
33865;DHT22;20159;51.072;13.526;2022-09-03T16:36:26;31.80;37.90
33865;DHT22;20159;51.072;13.526;2022-09-03T16:41:41;31.50;37.40
33865;DHT22;20159;51.072;13.526;2022-09-03T16:47:15;30.90;37.50
33865;DHT22;20159;51.072;13.526;2022-09-03T16:54:54;29.80;37.50
33865;DHT22;20159;51.072;13.526;2022-09-03T16:57:27;29.40;38.00
33865;DHT22;20159;51.072;13.526;2022-09-03T17:00:06;28.90;37.80
33865;DHT22;20159;51.072;13.526;2022-09-03T17:02:51;28.60;38.00
33865;DHT22;20159;51.072;13.526;2022-09-03T17:05:21;28.20;38.10
33865;DHT22;20159;51.072;13.526;2022-09-03T17:10:45;27.40;38.30
33865;DHT22;20159;51.072;13.526;2022-09-03T17:16:03;26.70;38.70
33865;DHT22;20159;51.072;13.526;2022-09-03T17:21:36;26.00;38.90
33865;DHT22;20159;51.072;13.526;2022-09-03T17:26:38;25.40;39.20
33865;DHT22;20159;51.072;13.526;2022-09-03T17:29:21;25.20;39.40
33865;DHT22;20159;51.072;13.526;2022-09-03T17:32:07;24.90;39.60
33865;DHT22;20159;51.072;13.526;2022-09-03T17:37:27;24.50;40.00
33865;DHT22;20159;51.072;13.526;2022-09-03T17:40:03;24.20;40.20
33865;DHT22;20159;51.072;13.526;2022-09-03T17:42:40;24.10;40.30
33865;DHT22;20159;51.072;13.526;2022-09-03T17:45:12;23.90;40.50
33865;DHT22;20159;51.072;13.526;2022-09-03T17:50:25;23.50;40.90
33865;DHT22;20159;51.072;13.526;2022-09-03T17:53:01;23.30;41.00
33865;DHT22;20159;51.072;13.526;2022-09-03T17:55:30;23.10;41.10
33865;DHT22;20159;51.072;13.526;2022-09-03T17:58:13;23.00;41.30
33865;DHT22;20159;51.072;13.526;2022-09-03T18:03:21;22.70;41.70
33865;DHT22;20159;51.072;13.526;2022-09-03T18:05:57;22.50;41.80
33865;DHT22;20159;51.072;13.526;2022-09-03T18:08:32;22.40;41.90
33865;DHT22;20159;51.072;13.526;2022-09-03T18:11:08;22.20;42.20
33865;DHT22;20159;51.072;13.526;2022-09-03T18:16:25;21.90;42.60
33865;DHT22;20159;51.072;13.526;2022-09-03T18:18:52;21.80;42.70
33865;DHT22;20159;51.072;13.526;2022-09-03T18:21:22;21.60;43.10
33865;DHT22;20159;51.072;13.526;2022-09-03T18:24:22;21.50;43.20
33865;DHT22;20159;51.072;13.526;2022-09-03T18:27:10;21.30;43.40